Ana Sayfa
METAR-TAF:

METAR-TAF

Havaalanları :

Atina Elefterios Venizelos Uluslararası Havalimanı

Atina, Yunanistan

Enlem: 37-56N, Boylam: 023-56E, yükseklik: 94 m

Güncel hava durumu gözlemi

Rapor saat 09:50 UTC de 25 dakika önce yapıldı.
Rüzgar kuzey/kuzeydoğudan 14 kt
Sıcaklık 22°C
Nem 50%
Basınç 1018 hPa
Görüş mesafesi 10 km veya daha fazla
3000 ft yükseklikte az bulutlu

METAR: LGAV 170950Z 02014KT 9999 FEW030 22/11 Q1018 NOSIG

Saat: 13:15 (10:15 UTC)

Tahmin

Rapor saat 05:00 UTC de 5 saat ve 15 dakika önce yapıldı.
Ayın 17'si saat 06 UTC'den ayın 18'si saat 06 UTC'ye kadar geçerli Tahmin
Rüzgar kuzey/kuzeydoğudan 17 kt
Görüş mesafesi 10 km veya daha fazla
3000 ft yükseklikte parçalı bulutlu
Dönüşüyor
ayın 17'si saat 18 UTC'den ayın 17'si saat 20 UTC'ye kadar
Rüzgar kuzey/kuzeydoğudan 7 kt

TAF: LGAV 170500Z 1706/1806 02017KT 9999 SCT030 BECMG 1718/1720 02007KT

4.000'den fazla havaalanı için hava durumu gözlemleri ve tahminleri (METAR ve TAF raporları).

Kullanılabilir istasyonlar harita üzerinde sarı ve kırmızı noktalarla gösterilir.

İstasyonun adını görmek için fareyi noktanın üzerinde gezdirin.

Sonrasında hava gözlem ve tahminlerini görmek için tıklayın.

Haritayı değiştirmek için: yaklaştırmak için siyah artı işaretli yeşil düğmeye ve uzaklaştırmak için de eksi işaretli düğmeye hızla tıklayın; bitişik haritalar için yeşil okları kullanın.


METAR-TAF: